createdAt,value
2022-10-16T00:00:06.850Z,7.78
2022-10-16T00:02:36.558Z,7.13
2022-10-16T00:05:03.895Z,8.02
2022-10-16T00:07:31.044Z,8.02
2022-10-16T00:09:58.379Z,7.85
2022-10-16T00:12:27.422Z,8.00
2022-10-16T00:14:55.923Z,7.18
2022-10-16T00:17:23.428Z,7.70
2022-10-16T00:19:50.740Z,7.72
2022-10-16T00:22:17.916Z,7.05
2022-10-16T00:24:46.904Z,7.00
2022-10-16T00:27:17.777Z,7.18
2022-10-16T00:29:47.819Z,8.65
2022-10-16T00:32:17.832Z,8.18
2022-10-16T00:34:48.526Z,8.45
2022-10-16T00:37:25.516Z,7.90
2022-10-16T00:39:54.766Z,8.43
2022-10-16T00:42:26.269Z,9.23
2022-10-16T00:44:59.508Z,9.15
2022-10-16T00:47:46.810Z,8.00
2022-10-16T00:50:36.725Z,8.30
2022-10-16T00:53:05.174Z,7.95
2022-10-16T00:55:32.785Z,8.60
2022-10-16T00:57:59.605Z,8.25
2022-10-16T01:00:28.172Z,8.80
2022-10-16T01:03:03.784Z,8.32
2022-10-16T01:05:56.060Z,9.45
2022-10-16T01:08:36.667Z,8.43
2022-10-16T01:11:34.019Z,8.30
2022-10-16T01:14:10.945Z,7.30
2022-10-16T01:17:02.010Z,8.57
2022-10-16T01:19:46.013Z,7.72
2022-10-16T01:22:17.008Z,6.97
2022-10-16T01:24:53.052Z,7.45
2022-10-16T01:40:45.999Z,6.70
2022-10-16T01:43:23.483Z,7.75
2022-10-16T01:45:57.675Z,8.02
2022-10-16T01:48:26.374Z,8.55
2022-10-16T01:51:05.527Z,6.80
2022-10-16T01:53:34.428Z,7.60
2022-10-16T01:56:03.626Z,9.23
2022-10-16T01:58:39.077Z,7.72
2022-10-16T02:01:35.489Z,6.97
2022-10-16T02:04:10.816Z,7.65
2022-10-16T02:06:39.009Z,7.63
2022-10-16T02:09:15.374Z,8.00
2022-10-16T02:11:42.477Z,7.15
2022-10-16T02:14:13.357Z,6.40
2022-10-16T02:16:44.220Z,7.10
2022-10-16T02:19:12.348Z,7.25
2022-10-16T02:22:01.532Z,8.20
2022-10-16T02:24:47.753Z,8.43
2022-10-16T02:27:36.442Z,7.18
2022-10-16T02:30:32.035Z,7.82
2022-10-16T02:33:04.220Z,8.15
2022-10-16T02:35:35.624Z,8.35
2022-10-16T02:38:03.339Z,8.00
2022-10-16T02:40:30.573Z,9.20
2022-10-16T02:43:00.203Z,8.82
2022-10-16T02:45:31.698Z,8.60
2022-10-16T02:48:01.793Z,8.90
2022-10-16T02:50:29.003Z,7.97
2022-10-16T02:52:56.623Z,8.32
2022-10-16T02:55:33.292Z,8.60
2022-10-16T02:58:01.144Z,9.55
2022-10-16T03:00:30.311Z,10.70
2022-10-16T03:02:57.406Z,8.25
2022-10-16T03:05:26.530Z,9.02
2022-10-16T03:07:56.380Z,8.45
2022-10-16T03:10:24.047Z,8.27
2022-10-16T03:12:52.454Z,8.13
2022-10-16T03:15:19.608Z,8.32
2022-10-16T03:17:47.041Z,7.88
2022-10-16T03:20:14.839Z,7.78
2022-10-16T03:22:45.716Z,9.38
2022-10-16T03:25:12.866Z,9.27
2022-10-16T03:27:41.612Z,8.93
2022-10-16T03:30:09.621Z,8.70
2022-10-16T03:32:38.098Z,11.18
2022-10-16T03:35:06.782Z,8.25
2022-10-16T03:37:34.028Z,7.93
2022-10-16T03:40:01.187Z,8.00
2022-10-16T03:42:30.511Z,8.65
2022-10-16T03:44:58.212Z,7.97
2022-10-16T03:47:25.711Z,8.57
2022-10-16T03:49:53.501Z,7.40
2022-10-16T03:52:20.544Z,8.87
2022-10-16T03:54:47.902Z,6.95
2022-10-16T03:57:14.826Z,8.48
2022-10-16T03:59:41.994Z,8.52
2022-10-16T04:02:11.226Z,7.55
2022-10-16T04:04:40.282Z,7.68
2022-10-16T04:07:13.463Z,8.85
2022-10-16T04:09:40.346Z,8.13
2022-10-16T04:12:08.039Z,8.05
2022-10-16T04:14:38.335Z,7.35
2022-10-16T04:17:09.831Z,7.97
2022-10-16T04:19:39.477Z,8.75
2022-10-16T04:22:15.573Z,10.38
2022-10-16T04:24:42.892Z,7.50
2022-10-16T04:27:17.235Z,8.82
2022-10-16T04:29:45.702Z,8.63
2022-10-16T04:32:25.224Z,9.05
2022-10-16T04:34:54.522Z,11.55
2022-10-16T04:37:25.844Z,12.35
2022-10-16T04:39:54.089Z,11.80
2022-10-16T04:42:23.428Z,10.25
2022-10-16T04:44:52.305Z,11.90
2022-10-16T04:47:19.252Z,12.00
2022-10-16T04:49:46.987Z,14.00
2022-10-16T04:52:17.375Z,10.18
2022-10-16T04:54:48.297Z,12.73
2022-10-16T04:57:16.255Z,12.60
2022-10-16T04:59:44.451Z,13.90
2022-10-16T05:02:11.700Z,12.07
2022-10-16T05:04:39.724Z,12.70
2022-10-16T05:07:12.539Z,12.73
2022-10-16T05:09:41.050Z,11.18
2022-10-16T05:12:10.250Z,12.45
2022-10-16T05:14:44.059Z,10.65
2022-10-16T05:17:13.693Z,10.95
2022-10-16T05:19:41.403Z,9.30
2022-10-16T05:22:08.504Z,11.55
2022-10-16T05:24:38.581Z,12.57
2022-10-16T05:27:07.708Z,9.15
2022-10-16T05:29:37.321Z,10.50
2022-10-16T05:32:04.928Z,8.93
2022-10-16T05:34:35.185Z,9.00
2022-10-16T05:37:03.154Z,8.63
2022-10-16T05:39:32.373Z,8.05
2022-10-16T05:42:13.034Z,8.55
2022-10-16T05:44:44.831Z,9.85
2022-10-16T05:47:16.294Z,8.00
2022-10-16T05:52:55.789Z,9.05
2022-10-16T05:55:28.265Z,9.10
2022-10-16T05:58:00.464Z,7.47
2022-10-16T06:00:32.861Z,7.95
2022-10-16T06:03:00.238Z,7.07
2022-10-16T06:05:31.439Z,7.68
2022-10-16T06:08:00.996Z,6.88
2022-10-16T06:10:30.495Z,5.50
2022-10-16T06:12:59.285Z,6.93
2022-10-16T06:15:29.135Z,7.17
2022-10-16T06:17:55.928Z,6.33
2022-10-16T06:20:23.263Z,5.65
2022-10-16T06:22:50.504Z,6.50
2022-10-16T06:25:18.458Z,5.83
2022-10-16T06:27:56.602Z,5.90
2022-10-16T06:30:23.481Z,5.90
2022-10-16T06:32:51.897Z,6.20
2022-10-16T06:35:23.714Z,6.13
2022-10-16T06:37:52.371Z,6.57
2022-10-16T06:42:59.568Z,6.53
2022-10-16T06:45:27.512Z,6.33
2022-10-16T06:47:54.620Z,4.80
2022-10-16T06:50:23.403Z,5.70
2022-10-16T06:52:50.428Z,5.37
2022-10-16T06:55:18.991Z,6.33
2022-10-16T06:57:50.134Z,4.90
2022-10-16T07:00:20.960Z,4.77
2022-10-16T07:02:48.153Z,4.80
2022-10-16T07:05:15.707Z,5.73
2022-10-16T07:07:50.592Z,6.22
2022-10-16T07:10:21.101Z,5.33
2022-10-16T07:12:50.112Z,6.53
2022-10-16T07:15:18.881Z,5.50
2022-10-16T07:17:49.563Z,5.47
2022-10-16T07:20:22.333Z,4.30
2022-10-16T07:22:49.568Z,4.03
2022-10-16T07:25:16.641Z,4.78
2022-10-16T07:27:44.801Z,3.88
2022-10-16T07:32:56.882Z,4.90
2022-10-16T07:35:24.050Z,4.00
2022-10-16T07:37:51.245Z,4.87
2022-10-16T07:40:27.011Z,3.17
2022-10-16T07:42:55.040Z,3.00
2022-10-16T07:45:37.664Z,3.87
2022-10-16T07:48:07.185Z,3.80
2022-10-16T07:50:35.216Z,3.63
2022-10-16T07:53:04.063Z,3.83
2022-10-16T07:55:31.370Z,4.03
2022-10-16T07:57:59.245Z,3.30
2022-10-16T08:00:26.806Z,3.90
2022-10-16T08:02:55.295Z,3.10
2022-10-16T08:05:31.152Z,3.60
2022-10-16T08:07:58.677Z,3.20
2022-10-16T08:10:31.681Z,2.90
2022-10-16T08:13:01.501Z,2.90
2022-10-16T08:15:28.710Z,3.10
2022-10-16T08:18:00.872Z,3.50
2022-10-16T08:20:30.096Z,3.13
2022-10-16T08:23:02.819Z,3.20
2022-10-16T08:25:30.256Z,3.47
2022-10-16T08:28:02.425Z,2.90
2022-10-16T08:30:29.381Z,2.70
2022-10-16T08:32:58.027Z,2.90
2022-10-16T08:35:26.230Z,2.70
2022-10-16T08:37:54.762Z,3.25
2022-10-16T08:40:27.226Z,2.77
2022-10-16T08:43:09.338Z,3.00
2022-10-16T08:46:06.224Z,2.37
2022-10-16T08:48:46.760Z,2.70
2022-10-16T08:51:23.002Z,3.20
2022-10-16T08:54:05.408Z,3.47
2022-10-16T08:56:33.346Z,2.73
2022-10-16T08:59:03.179Z,3.03
2022-10-16T09:01:44.028Z,2.70
2022-10-16T09:04:32.069Z,2.87
2022-10-16T09:07:09.068Z,2.47
2022-10-16T09:09:54.767Z,2.80
2022-10-16T09:12:38.571Z,3.03
2022-10-16T09:15:17.785Z,3.57
2022-10-16T09:18:30.002Z,3.07
2022-10-16T09:21:39.985Z,3.23
2022-10-16T09:24:27.006Z,3.20
2022-10-16T09:26:56.153Z,2.60
2022-10-16T09:29:27.016Z,3.27
2022-10-16T09:31:56.560Z,2.83
2022-10-16T09:34:30.113Z,2.97
2022-10-16T09:36:59.792Z,2.30
2022-10-16T09:39:29.761Z,3.13
2022-10-16T09:41:59.420Z,2.80
2022-10-16T09:44:32.830Z,2.60
2022-10-16T09:47:08.403Z,3.03
2022-10-16T09:49:36.166Z,2.47
2022-10-16T09:52:12.486Z,5.20
2022-10-16T09:54:50.303Z,5.33
2022-10-16T09:57:18.727Z,6.03
2022-10-16T09:59:51.060Z,3.60
2022-10-16T10:02:28.269Z,4.30
2022-10-16T10:04:56.598Z,3.70
2022-10-16T10:07:39.202Z,3.20
2022-10-16T10:10:08.810Z,4.40
2022-10-16T10:12:40.540Z,3.43
2022-10-16T10:15:10.443Z,5.67
2022-10-16T10:17:49.106Z,2.93
2022-10-16T10:20:31.742Z,3.07
2022-10-16T10:22:58.552Z,3.83
2022-10-16T10:25:33.471Z,2.83
2022-10-16T10:28:24.829Z,3.57
2022-10-16T10:31:05.831Z,3.20
2022-10-16T10:33:50.960Z,2.63
2022-10-16T10:36:39.308Z,2.60
2022-10-16T10:39:30.424Z,3.33
2022-10-16T10:42:26.676Z,2.90
2022-10-16T10:45:24.568Z,2.77
2022-10-16T10:48:21.710Z,2.40
2022-10-16T10:51:25.338Z,3.90
2022-10-16T10:54:04.177Z,3.00
2022-10-16T10:56:53.713Z,2.00
2022-10-16T11:02:54.835Z,2.50
2022-10-16T11:06:05.692Z,2.40
2022-10-16T11:09:00.624Z,2.40
2022-10-16T11:11:56.914Z,2.58
2022-10-16T11:14:32.785Z,5.10
2022-10-16T11:17:08.529Z,3.97
2022-10-16T11:19:49.143Z,3.50
2022-10-16T11:22:39.092Z,3.53
2022-10-16T11:25:21.035Z,2.57
2022-10-16T11:28:10.017Z,2.40
2022-10-16T11:30:51.473Z,3.00
2022-10-16T11:39:42.624Z,2.10
2022-10-16T11:42:40.607Z,2.10
2022-10-16T11:45:42.627Z,1.73
2022-10-16T11:48:36.756Z,2.10
2022-10-16T11:51:34.121Z,2.87
2022-10-16T11:54:25.137Z,2.50
2022-10-16T11:56:57.938Z,4.37
2022-10-16T11:59:39.944Z,2.50
2022-10-16T12:02:35.033Z,2.77
2022-10-16T12:05:32.679Z,2.20
2022-10-16T12:08:12.465Z,2.57
2022-10-16T12:10:45.139Z,2.93
2022-10-16T12:13:44.572Z,2.40
2022-10-16T12:16:18.792Z,3.10
2022-10-16T12:18:49.749Z,2.73
2022-10-16T12:21:20.165Z,2.60
2022-10-16T12:23:55.931Z,3.40
2022-10-16T12:26:32.338Z,2.57
2022-10-16T12:29:29.006Z,3.20
2022-10-16T12:31:58.756Z,2.90
2022-10-16T12:34:49.848Z,4.33
2022-10-16T12:37:29.611Z,3.53
2022-10-16T12:40:00.433Z,3.70
2022-10-16T12:42:33.916Z,4.63
2022-10-16T12:45:02.108Z,5.00
2022-10-16T12:47:32.054Z,5.40
2022-10-16T12:49:59.559Z,5.03
2022-10-16T12:52:39.963Z,4.22
2022-10-16T12:55:17.697Z,5.00
2022-10-16T12:58:13.026Z,4.77
2022-10-16T13:00:58.871Z,4.70
2022-10-16T13:04:04.699Z,4.70
2022-10-16T13:06:46.258Z,4.87
2022-10-16T13:09:58.593Z,5.20
2022-10-16T13:12:49.628Z,4.43
2022-10-16T13:15:38.741Z,5.50
2022-10-16T13:18:17.325Z,4.40
2022-10-16T13:21:20.881Z,4.80
2022-10-16T13:24:17.490Z,4.63
2022-10-16T13:27:17.344Z,4.60
2022-10-16T13:29:45.178Z,4.27
2022-10-16T13:32:16.309Z,4.10
2022-10-16T13:34:47.387Z,6.13
2022-10-16T13:37:23.551Z,4.57
2022-10-16T13:39:52.212Z,4.70
2022-10-16T13:42:28.249Z,4.00
2022-10-16T13:44:57.886Z,3.53
2022-10-16T13:47:31.534Z,3.27
2022-10-16T13:50:13.849Z,3.90
2022-10-16T13:52:42.558Z,4.00
2022-10-16T13:55:14.845Z,3.80
2022-10-16T13:57:48.545Z,3.60
2022-10-16T14:00:31.254Z,3.70
2022-10-16T14:03:14.537Z,3.73
2022-10-16T14:06:02.904Z,4.30
2022-10-16T14:08:32.048Z,3.47
2022-10-16T14:11:02.127Z,4.07
2022-10-16T14:13:50.086Z,4.10
2022-10-16T14:16:40.195Z,3.77
2022-10-16T14:19:08.770Z,4.00
2022-10-16T14:21:36.512Z,4.50
2022-10-16T14:24:15.148Z,3.80
2022-10-16T14:26:49.740Z,4.13
2022-10-16T14:29:21.392Z,3.43
2022-10-16T14:32:03.333Z,10.30
2022-10-16T14:34:35.409Z,5.60
2022-10-16T14:37:15.029Z,5.00
2022-10-16T14:39:44.273Z,6.00
2022-10-16T14:42:20.477Z,4.00
2022-10-16T14:44:48.591Z,5.87
2022-10-16T14:47:23.459Z,4.30
2022-10-16T14:49:50.684Z,3.37
2022-10-16T14:52:17.540Z,5.37
2022-10-16T14:54:44.821Z,5.10
2022-10-16T14:57:20.442Z,4.40
2022-10-16T14:59:48.148Z,4.53
2022-10-16T15:02:31.915Z,11.43
2022-10-16T15:05:03.115Z,6.27
2022-10-16T15:07:30.105Z,5.28
2022-10-16T15:09:58.635Z,5.70
2022-10-16T15:12:25.615Z,4.80
2022-10-16T15:14:55.206Z,4.20
2022-10-16T15:17:23.167Z,6.70
2022-10-16T15:19:50.142Z,5.07
2022-10-16T15:22:18.915Z,6.00
2022-10-16T15:24:46.233Z,4.57
2022-10-16T15:27:15.544Z,5.17
2022-10-16T15:29:42.347Z,4.73
2022-10-16T15:32:11.825Z,5.43
2022-10-16T15:34:38.861Z,5.63
2022-10-16T15:37:07.185Z,5.53
2022-10-16T15:39:39.071Z,6.40
2022-10-16T15:42:11.425Z,5.77
2022-10-16T15:44:38.519Z,6.00
2022-10-16T15:47:05.912Z,6.30
2022-10-16T15:49:36.376Z,5.97
2022-10-16T15:52:04.306Z,7.73
2022-10-16T15:54:31.902Z,6.93
2022-10-16T15:56:59.091Z,5.78
2022-10-16T15:59:26.888Z,6.83
2022-10-16T16:01:55.395Z,6.43
2022-10-16T16:04:43.826Z,7.20
2022-10-16T16:07:12.163Z,7.10
2022-10-16T16:09:39.241Z,7.60
2022-10-16T16:12:06.726Z,6.13
2022-10-16T16:14:35.094Z,6.90
2022-10-16T16:17:03.399Z,6.70
2022-10-16T16:19:32.991Z,6.77
2022-10-16T16:22:00.232Z,6.60
2022-10-16T16:24:27.551Z,6.20
2022-10-16T16:26:56.524Z,7.53
2022-10-16T16:29:24.586Z,8.00
2022-10-16T16:32:06.442Z,7.13
2022-10-16T16:34:44.700Z,6.83
2022-10-16T16:37:19.422Z,7.63
2022-10-16T16:39:56.139Z,7.40
2022-10-16T16:42:25.158Z,8.80
2022-10-16T16:44:55.904Z,7.97
2022-10-16T16:47:23.156Z,7.57
2022-10-16T16:50:08.092Z,9.02
2022-10-16T16:52:37.193Z,8.20
2022-10-16T16:55:07.215Z,7.80
2022-10-16T16:57:35.895Z,8.30
2022-10-16T17:00:05.195Z,9.20
2022-10-16T17:02:32.347Z,9.43
2022-10-16T17:05:02.003Z,9.03
2022-10-16T17:07:37.146Z,8.47
2022-10-16T17:10:04.404Z,9.87
2022-10-16T17:12:33.692Z,10.77
2022-10-16T17:15:00.776Z,10.73
2022-10-16T17:17:28.728Z,9.50
2022-10-16T17:20:04.127Z,11.40
2022-10-16T17:22:35.439Z,11.47
2022-10-16T17:25:04.764Z,14.52
2022-10-16T17:27:33.106Z,10.77
2022-10-16T17:32:50.624Z,10.43
2022-10-16T17:35:23.963Z,10.63
2022-10-16T17:38:02.574Z,11.37
2022-10-16T17:40:35.615Z,11.40
2022-10-16T17:43:06.195Z,10.60
2022-10-16T17:45:44.433Z,11.73
2022-10-16T17:48:19.618Z,10.60
2022-10-16T17:50:52.232Z,11.70
2022-10-16T17:53:33.164Z,12.03
2022-10-16T17:56:04.643Z,11.70
2022-10-16T17:58:43.732Z,11.80
2022-10-16T18:01:27.037Z,11.33
2022-10-16T18:04:01.063Z,11.90
2022-10-16T18:06:35.081Z,10.77
2022-10-16T18:12:15.346Z,11.50
2022-10-16T18:14:47.807Z,13.50
2022-10-16T18:17:26.111Z,12.43
2022-10-16T18:20:02.352Z,13.00
2022-10-16T18:22:41.180Z,12.80
2022-10-16T18:28:18.263Z,13.27
2022-10-16T18:30:48.609Z,14.53
2022-10-16T18:33:24.846Z,13.77
2022-10-16T18:35:57.929Z,13.20
2022-10-16T18:41:35.374Z,13.73
2022-10-16T18:44:33.216Z,16.00
2022-10-16T18:47:15.611Z,15.50
2022-10-16T18:49:52.721Z,14.85
2022-10-16T18:52:43.443Z,15.13
2022-10-16T18:55:15.795Z,15.67
2022-10-16T18:57:53.571Z,16.00
2022-10-16T19:00:46.392Z,16.50
2022-10-16T19:06:30.884Z,14.30
2022-10-16T19:09:13.716Z,16.00
2022-10-16T19:11:48.273Z,16.63
2022-10-16T19:14:18.254Z,18.00
2022-10-16T19:16:46.766Z,16.20
2022-10-16T19:19:21.170Z,17.57
2022-10-16T19:24:56.005Z,15.40
2022-10-16T19:27:24.620Z,14.83
2022-10-16T19:29:59.514Z,18.10
2022-10-16T19:32:32.201Z,16.80
2022-10-16T19:35:01.760Z,16.23
2022-10-16T19:37:33.412Z,17.53
2022-10-16T19:40:01.125Z,16.35
2022-10-16T19:42:28.366Z,18.93
2022-10-16T19:47:43.289Z,19.77
2022-10-16T19:53:00.200Z,20.40
2022-10-16T19:55:31.804Z,19.00
2022-10-16T19:58:02.794Z,18.10
2022-10-16T20:00:34.049Z,18.70
2022-10-16T20:03:04.328Z,19.80
2022-10-16T20:05:34.963Z,20.27
2022-10-16T20:08:02.068Z,21.67
2022-10-16T20:10:32.061Z,17.97
2022-10-16T20:12:59.795Z,19.60
2022-10-16T20:15:27.093Z,19.40
2022-10-16T20:17:56.572Z,20.20
2022-10-16T20:20:23.833Z,20.73
2022-10-16T20:22:50.876Z,20.00
2022-10-16T20:25:19.291Z,19.80
2022-10-16T20:27:46.933Z,18.20
2022-10-16T20:30:18.936Z,18.97
2022-10-16T20:32:48.654Z,20.73
2022-10-16T20:35:17.567Z,19.97
2022-10-16T20:37:49.078Z,20.10
2022-10-16T20:40:17.735Z,21.20
2022-10-16T20:42:45.255Z,23.47
2022-10-16T20:45:16.244Z,21.67
2022-10-16T20:47:53.127Z,22.60
2022-10-16T20:50:21.378Z,22.10
2022-10-16T20:55:17.730Z,22.53
2022-10-16T20:57:46.281Z,22.88
2022-10-16T21:00:16.529Z,22.47
2022-10-16T21:02:45.650Z,20.38
2022-10-16T21:05:12.659Z,19.87
2022-10-16T21:07:44.715Z,23.40
2022-10-16T21:10:15.321Z,20.53
2022-10-16T21:12:46.715Z,21.90
2022-10-16T21:15:15.369Z,20.73
2022-10-16T21:17:44.128Z,20.13
2022-10-16T21:20:14.029Z,21.57
2022-10-16T21:22:40.977Z,19.73
2022-10-16T21:25:11.402Z,20.80
2022-10-16T21:27:40.006Z,23.10
2022-10-16T21:30:09.561Z,19.27
2022-10-16T21:32:38.231Z,20.83
2022-10-16T21:35:08.099Z,22.07
2022-10-16T21:37:43.647Z,22.10
2022-10-16T21:40:16.601Z,21.43
2022-10-16T21:42:43.999Z,21.10
2022-10-16T21:45:11.708Z,20.47
2022-10-16T21:47:46.802Z,21.87
2022-10-16T21:50:15.530Z,22.53
2022-10-16T21:52:42.855Z,19.87
2022-10-16T21:55:15.532Z,19.08
2022-10-16T21:57:43.074Z,22.10
2022-10-16T22:00:15.884Z,20.20
2022-10-16T22:02:46.701Z,21.60
2022-10-16T22:05:16.361Z,23.10
2022-10-16T22:07:48.353Z,24.13
2022-10-16T22:10:17.602Z,23.33
2022-10-16T22:12:45.234Z,23.17
2022-10-16T22:15:12.727Z,22.97
2022-10-16T22:17:41.169Z,24.43
2022-10-16T22:20:11.432Z,24.50
2022-10-16T22:22:38.953Z,21.00
2022-10-16T22:25:13.872Z,25.40
2022-10-16T22:27:43.968Z,24.57
2022-10-16T22:30:12.147Z,23.05
2022-10-16T22:32:40.030Z,23.77
2022-10-16T22:35:09.240Z,24.10
2022-10-16T22:37:36.162Z,23.30
2022-10-16T22:40:08.340Z,23.67
2022-10-16T22:45:19.317Z,22.37
2022-10-16T22:47:49.710Z,22.13
2022-10-16T22:50:16.739Z,22.40
2022-10-16T22:52:44.430Z,22.80
2022-10-16T22:55:11.361Z,22.17
2022-10-16T22:57:38.974Z,23.27
2022-10-16T23:00:07.784Z,23.10
2022-10-16T23:02:35.658Z,24.00
2022-10-16T23:05:02.924Z,22.60
2022-10-16T23:07:38.093Z,23.10
2022-10-16T23:10:07.670Z,23.73
2022-10-16T23:12:36.396Z,24.37
2022-10-16T23:15:04.433Z,23.27
2022-10-16T23:17:32.854Z,22.70
2022-10-16T23:19:59.971Z,24.63
2022-10-16T23:22:27.511Z,23.60
2022-10-16T23:24:55.030Z,25.93
2022-10-16T23:27:24.767Z,24.50
2022-10-16T23:29:52.041Z,21.80
2022-10-16T23:32:19.483Z,22.77
2022-10-16T23:34:47.823Z,25.13
2022-10-16T23:37:15.740Z,23.87
2022-10-16T23:39:44.104Z,24.83
2022-10-16T23:42:14.838Z,28.30
2022-10-16T23:44:42.128Z,27.00
2022-10-16T23:47:09.009Z,27.17
2022-10-16T23:49:36.754Z,28.17
2022-10-16T23:52:04.283Z,27.97
2022-10-16T23:54:32.061Z,25.93
2022-10-16T23:56:58.915Z,25.40
2022-10-16T23:59:27.708Z,26.97
